createdAt,value
2023-01-31T00:00:47.078Z,4.09
2023-01-31T00:03:15.843Z,4.09
2023-01-31T00:05:44.908Z,4.10
2023-01-31T00:08:14.095Z,4.07
2023-01-31T00:10:42.019Z,4.09
2023-01-31T00:13:11.076Z,4.07
2023-01-31T00:15:39.906Z,4.04
2023-01-31T00:18:07.679Z,4.05
2023-01-31T00:20:36.322Z,4.01
2023-01-31T00:23:06.871Z,3.98
2023-01-31T00:25:37.033Z,4.01
2023-01-31T00:28:05.579Z,3.98
2023-01-31T00:30:35.874Z,4.04
2023-01-31T00:33:05.213Z,3.97
2023-01-31T00:35:33.086Z,3.94
2023-01-31T00:38:00.800Z,3.96
2023-01-31T00:40:33.042Z,3.89
2023-01-31T00:43:03.972Z,3.83
2023-01-31T00:45:37.734Z,3.77
2023-01-31T00:48:07.052Z,3.74
2023-01-31T00:50:42.110Z,3.72
2023-01-31T00:53:15.263Z,3.67
2023-01-31T00:55:44.583Z,3.65
2023-01-31T00:58:16.902Z,3.59
2023-01-31T01:00:47.029Z,3.58
2023-01-31T01:03:15.400Z,3.57
2023-01-31T01:05:43.076Z,3.48
2023-01-31T01:08:10.849Z,3.44
2023-01-31T01:10:47.049Z,3.41
2023-01-31T01:13:16.779Z,3.37
2023-01-31T01:15:44.433Z,3.35
2023-01-31T01:18:12.137Z,3.34
2023-01-31T01:20:40.169Z,3.31
2023-01-31T01:23:08.021Z,3.28
2023-01-31T01:25:43.563Z,3.25
2023-01-31T01:28:16.935Z,3.26
2023-01-31T01:30:48.063Z,3.30
2023-01-31T01:33:17.156Z,3.26
2023-01-31T01:35:44.803Z,3.25
2023-01-31T01:38:40.873Z,3.25
2023-01-31T01:41:10.081Z,3.21
2023-01-31T01:43:46.195Z,3.18
2023-01-31T01:46:20.706Z,3.16
2023-01-31T01:48:51.955Z,3.17
2023-01-31T01:51:24.013Z,3.09
2023-01-31T01:53:57.122Z,3.07
2023-01-31T01:56:34.896Z,3.02
2023-01-31T01:59:10.920Z,3.00
2023-01-31T02:01:43.626Z,2.95
2023-01-31T02:04:16.542Z,2.91
2023-01-31T02:06:46.592Z,2.87
2023-01-31T02:09:21.553Z,2.89
2023-01-31T02:11:49.322Z,2.83
2023-01-31T02:14:19.181Z,2.83
2023-01-31T02:16:55.957Z,2.78
2023-01-31T02:19:37.050Z,2.75
2023-01-31T02:22:18.113Z,2.73
2023-01-31T02:25:22.444Z,2.74
2023-01-31T02:28:33.965Z,2.69
2023-01-31T02:31:40.736Z,2.64
2023-01-31T02:34:21.666Z,2.66
2023-01-31T02:37:03.594Z,2.64
2023-01-31T02:39:43.399Z,2.64
2023-01-31T02:42:21.712Z,2.67
2023-01-31T02:45:01.594Z,2.62
2023-01-31T02:47:55.711Z,2.60
2023-01-31T02:50:33.043Z,2.62
2023-01-31T02:53:09.723Z,2.59
2023-01-31T02:56:00.232Z,2.61
2023-01-31T02:58:35.776Z,2.62
2023-01-31T03:01:06.549Z,2.62
2023-01-31T03:03:46.461Z,2.66
2023-01-31T03:06:54.808Z,2.65
2023-01-31T03:09:42.890Z,2.67
2023-01-31T03:12:20.823Z,2.68
2023-01-31T03:15:52.940Z,2.66
2023-01-31T03:18:27.733Z,2.67
2023-01-31T03:21:04.487Z,2.65
2023-01-31T03:23:38.314Z,2.66
2023-01-31T03:26:08.951Z,2.63
2023-01-31T03:28:42.057Z,2.68
2023-01-31T03:31:27.009Z,2.67
2023-01-31T03:34:00.623Z,2.65
2023-01-31T03:36:32.716Z,2.64
2023-01-31T03:39:32.721Z,2.67
2023-01-31T03:42:07.385Z,2.70
2023-01-31T03:44:44.500Z,2.71
2023-01-31T03:47:21.707Z,2.67
2023-01-31T03:49:53.601Z,2.68
2023-01-31T03:52:30.349Z,2.72
2023-01-31T03:55:04.429Z,2.73
2023-01-31T03:57:40.250Z,2.78
2023-01-31T04:00:12.922Z,2.74
2023-01-31T04:02:54.737Z,2.82
2023-01-31T04:05:30.460Z,2.83
2023-01-31T04:08:01.231Z,2.79
2023-01-31T04:10:37.902Z,2.78
2023-01-31T04:13:05.441Z,2.83
2023-01-31T04:15:34.597Z,2.83
2023-01-31T04:18:05.715Z,2.80
2023-01-31T04:20:33.596Z,2.85
2023-01-31T04:23:03.374Z,2.87
2023-01-31T04:28:29.320Z,2.90
2023-01-31T04:30:59.819Z,2.92
2023-01-31T04:33:27.862Z,2.93
2023-01-31T04:35:55.565Z,2.93
2023-01-31T04:38:30.531Z,2.98
2023-01-31T04:41:04.542Z,3.02
2023-01-31T04:43:35.409Z,3.06
2023-01-31T04:46:04.773Z,3.06
2023-01-31T04:48:32.921Z,3.05
2023-01-31T04:51:08.498Z,3.06
2023-01-31T04:53:38.587Z,3.10
2023-01-31T04:56:14.594Z,3.16
2023-01-31T04:58:44.053Z,3.18
2023-01-31T05:01:11.920Z,3.21
2023-01-31T05:03:47.091Z,3.25
2023-01-31T05:06:15.700Z,3.24
2023-01-31T05:08:52.236Z,3.23
2023-01-31T05:11:24.045Z,3.25
2023-01-31T05:13:53.622Z,3.28
2023-01-31T05:16:22.938Z,3.29
2023-01-31T05:18:51.081Z,3.30
2023-01-31T05:21:19.613Z,3.31
2023-01-31T05:23:47.263Z,3.30
2023-01-31T05:29:14.163Z,3.27
2023-01-31T05:31:44.259Z,3.28
2023-01-31T05:34:18.402Z,3.27
2023-01-31T05:36:47.620Z,3.28
2023-01-31T05:39:17.688Z,3.26
2023-01-31T05:41:48.350Z,3.27
2023-01-31T05:44:19.702Z,3.31
2023-01-31T05:46:51.794Z,3.28
2023-01-31T05:49:19.633Z,3.29
2023-01-31T05:51:54.588Z,3.33
2023-01-31T05:54:22.612Z,3.32
2023-01-31T05:56:50.216Z,3.33
2023-01-31T05:59:20.371Z,3.37
2023-01-31T06:01:48.617Z,3.37
2023-01-31T06:04:48.641Z,3.39
2023-01-31T06:07:17.722Z,3.45
2023-01-31T06:09:46.063Z,3.45
2023-01-31T06:12:20.551Z,3.43
2023-01-31T06:14:59.460Z,3.45
2023-01-31T06:17:30.469Z,3.55
2023-01-31T06:20:05.634Z,3.54
2023-01-31T06:22:35.132Z,3.58
2023-01-31T06:25:02.846Z,3.59
2023-01-31T06:30:35.158Z,3.62
2023-01-31T06:33:05.762Z,3.71
2023-01-31T06:36:02.353Z,3.77
2023-01-31T06:38:38.439Z,3.74
2023-01-31T06:41:06.301Z,3.80
2023-01-31T06:43:34.699Z,3.84
2023-01-31T06:46:06.573Z,3.85
2023-01-31T06:51:26.600Z,3.95
2023-01-31T06:54:01.623Z,3.99
2023-01-31T06:56:33.621Z,3.98
2023-01-31T06:59:01.123Z,3.96
2023-01-31T07:01:57.039Z,3.97
2023-01-31T07:04:25.805Z,4.04
2023-01-31T07:06:54.607Z,4.04
2023-01-31T07:09:22.460Z,4.10
2023-01-31T07:11:57.585Z,4.15
2023-01-31T07:14:27.480Z,4.12
2023-01-31T07:16:56.483Z,4.15
2023-01-31T07:19:25.009Z,4.15
2023-01-31T07:21:53.615Z,4.14
2023-01-31T07:24:28.509Z,4.16
2023-01-31T07:26:57.082Z,4.24
2023-01-31T07:29:24.711Z,4.21
2023-01-31T07:31:52.649Z,4.22
2023-01-31T07:34:30.142Z,4.34
2023-01-31T07:36:58.994Z,4.31
2023-01-31T07:39:31.027Z,4.28
2023-01-31T07:41:59.260Z,4.29
2023-01-31T07:44:27.734Z,4.34
2023-01-31T07:50:05.615Z,4.35
2023-01-31T07:52:42.617Z,4.38
2023-01-31T07:55:11.502Z,4.37
2023-01-31T07:57:39.157Z,4.38
2023-01-31T08:00:38.385Z,4.45
2023-01-31T08:03:23.561Z,4.47
2023-01-31T08:05:54.996Z,4.49
2023-01-31T08:08:23.033Z,4.64
2023-01-31T08:10:52.286Z,4.61
2023-01-31T08:13:22.380Z,4.60
2023-01-31T08:15:53.121Z,4.60
2023-01-31T08:18:21.718Z,4.58
2023-01-31T08:20:56.721Z,4.61
2023-01-31T08:23:27.594Z,4.66
2023-01-31T08:26:01.750Z,4.64
2023-01-31T08:28:58.614Z,4.64
2023-01-31T08:31:30.847Z,4.64
2023-01-31T08:34:00.020Z,4.64
2023-01-31T08:36:31.678Z,4.72
2023-01-31T08:42:00.461Z,4.68
2023-01-31T08:44:29.056Z,4.68
2023-01-31T08:47:02.251Z,4.69
2023-01-31T08:49:33.617Z,4.71
2023-01-31T08:52:02.723Z,4.72
2023-01-31T08:54:31.787Z,4.69
2023-01-31T08:57:02.509Z,4.69
2023-01-31T08:59:30.228Z,4.67
2023-01-31T09:01:57.936Z,4.66
2023-01-31T09:04:25.741Z,4.73
2023-01-31T09:06:58.709Z,4.74
2023-01-31T09:09:27.438Z,4.71
2023-01-31T09:12:00.557Z,4.75
2023-01-31T09:14:33.555Z,4.77
2023-01-31T09:17:01.349Z,4.79
2023-01-31T09:19:29.155Z,4.81
2023-01-31T09:21:56.784Z,4.78
2023-01-31T09:24:27.864Z,4.78
2023-01-31T09:26:58.664Z,4.92
2023-01-31T09:29:28.619Z,5.00
2023-01-31T09:31:57.137Z,4.94
2023-01-31T09:34:26.324Z,5.00
2023-01-31T09:36:57.651Z,4.96
2023-01-31T09:39:25.795Z,4.94
2023-01-31T09:41:56.266Z,4.97
2023-01-31T09:44:33.246Z,4.98
2023-01-31T09:47:11.783Z,5.03
2023-01-31T09:49:46.906Z,4.99
2023-01-31T09:52:38.247Z,5.11
2023-01-31T09:59:41.965Z,5.08
2023-01-31T10:02:32.312Z,5.22
2023-01-31T10:05:11.410Z,5.12
2023-01-31T10:07:48.169Z,5.11
2023-01-31T10:10:24.875Z,5.19
2023-01-31T10:12:58.617Z,5.17
2023-01-31T10:15:33.592Z,5.25
2023-01-31T10:18:05.621Z,5.26
2023-01-31T10:20:35.928Z,5.26
2023-01-31T10:23:09.351Z,5.20
2023-01-31T10:25:41.183Z,5.21
2023-01-31T10:28:14.588Z,5.23
2023-01-31T10:30:51.542Z,5.28
2023-01-31T10:33:26.081Z,5.37
2023-01-31T10:35:58.208Z,5.37
2023-01-31T10:38:31.474Z,5.35
2023-01-31T10:41:07.815Z,5.39
2023-01-31T10:43:40.954Z,5.41
2023-01-31T10:46:14.732Z,5.41
2023-01-31T10:48:47.206Z,5.46
2023-01-31T10:51:30.713Z,5.46
2023-01-31T10:54:13.002Z,5.49
2023-01-31T10:56:44.632Z,5.54
2023-01-31T10:59:20.307Z,5.40
2023-01-31T11:01:49.336Z,5.58
2023-01-31T11:04:26.020Z,5.47
2023-01-31T11:06:54.922Z,5.45
2023-01-31T11:09:25.188Z,5.47
2023-01-31T11:11:58.596Z,5.46
2023-01-31T11:14:26.318Z,5.42
2023-01-31T11:17:02.009Z,5.46
2023-01-31T11:19:38.504Z,5.46
2023-01-31T11:22:07.742Z,5.50
2023-01-31T11:24:38.617Z,5.46
2023-01-31T11:27:09.842Z,5.48
2023-01-31T11:29:41.191Z,5.44
2023-01-31T11:32:18.591Z,5.53
2023-01-31T11:34:57.893Z,5.62
2023-01-31T11:37:25.755Z,5.63
2023-01-31T11:39:58.490Z,5.59
2023-01-31T11:42:27.337Z,5.59
2023-01-31T11:44:57.380Z,5.56
2023-01-31T11:47:33.651Z,5.67
2023-01-31T11:50:03.612Z,5.66
2023-01-31T11:52:33.636Z,5.63
2023-01-31T11:55:09.206Z,5.73
2023-01-31T11:57:39.301Z,5.72
2023-01-31T12:00:23.066Z,5.75
2023-01-31T12:02:59.890Z,5.71
2023-01-31T12:05:37.323Z,5.68
2023-01-31T12:08:06.199Z,5.70
2023-01-31T12:10:41.277Z,5.69
2023-01-31T12:13:20.728Z,5.78
2023-01-31T12:15:55.350Z,5.84
2023-01-31T12:18:39.606Z,5.85
2023-01-31T12:21:14.366Z,5.87
2023-01-31T12:23:57.608Z,5.94
2023-01-31T12:26:35.771Z,5.87
2023-01-31T12:29:25.349Z,5.98
2023-01-31T12:32:09.597Z,6.02
2023-01-31T12:35:06.815Z,6.01
2023-01-31T12:37:50.163Z,6.08
2023-01-31T12:40:39.016Z,6.12
2023-01-31T12:43:18.708Z,6.13
2023-01-31T12:45:58.718Z,6.10
2023-01-31T12:48:48.319Z,6.05
2023-01-31T12:51:40.975Z,6.18
2023-01-31T12:54:34.943Z,6.15
2023-01-31T12:57:17.304Z,6.10
2023-01-31T12:59:49.609Z,6.10
2023-01-31T13:02:34.621Z,6.07
2023-01-31T13:05:10.996Z,6.11
2023-01-31T13:07:46.650Z,6.04
2023-01-31T13:10:30.842Z,6.13
2023-01-31T13:13:00.692Z,6.14
2023-01-31T13:15:37.805Z,6.15
2023-01-31T13:18:07.674Z,6.05
2023-01-31T13:20:40.221Z,6.07
2023-01-31T13:23:14.710Z,6.14
2023-01-31T13:25:47.506Z,6.05
2023-01-31T13:28:19.773Z,6.09
2023-01-31T13:30:54.716Z,6.09
2023-01-31T13:33:32.063Z,6.04
2023-01-31T13:36:16.260Z,6.03
2023-01-31T13:38:47.607Z,6.00
2023-01-31T13:41:21.873Z,6.04
2023-01-31T13:43:49.546Z,6.07
2023-01-31T13:46:24.775Z,6.10
2023-01-31T13:48:58.723Z,6.06
2023-01-31T13:51:36.211Z,6.02
2023-01-31T13:54:17.925Z,6.05
2023-01-31T13:56:51.722Z,6.04
2023-01-31T13:59:24.129Z,6.08
2023-01-31T14:01:55.858Z,6.09
2023-01-31T14:04:38.403Z,6.04
2023-01-31T14:07:22.593Z,6.01
2023-01-31T14:10:37.649Z,6.07
2023-01-31T14:13:28.650Z,6.02
2023-01-31T14:15:58.802Z,6.05
2023-01-31T14:18:38.739Z,6.11
2023-01-31T14:21:57.306Z,6.08
2023-01-31T14:25:04.790Z,6.07
2023-01-31T14:27:40.640Z,6.11
2023-01-31T14:30:28.066Z,6.09
2023-01-31T14:33:07.492Z,6.08
2023-01-31T14:35:49.542Z,6.17
2023-01-31T14:38:28.617Z,6.13
2023-01-31T14:41:04.823Z,6.14
2023-01-31T14:43:55.075Z,6.21
2023-01-31T14:46:45.855Z,6.27
2023-01-31T14:49:30.993Z,6.27
2023-01-31T14:52:21.142Z,6.23
2023-01-31T14:55:05.557Z,6.31
2023-01-31T14:57:42.150Z,6.30
2023-01-31T15:00:21.909Z,6.31
2023-01-31T15:02:56.862Z,6.29
2023-01-31T15:05:41.625Z,6.38
2023-01-31T15:08:44.487Z,6.37
2023-01-31T15:11:42.673Z,6.37
2023-01-31T15:14:36.121Z,6.43
2023-01-31T15:17:23.643Z,6.50
2023-01-31T15:20:14.945Z,6.51
2023-01-31T15:22:45.731Z,6.50
2023-01-31T15:25:27.526Z,6.59
2023-01-31T15:27:58.315Z,6.54
2023-01-31T15:30:27.620Z,6.58
2023-01-31T15:32:59.182Z,6.58
2023-01-31T15:35:32.729Z,6.67
2023-01-31T15:38:04.823Z,6.66
2023-01-31T15:40:32.824Z,6.66
2023-01-31T15:43:20.618Z,6.64
2023-01-31T15:45:52.169Z,6.64
2023-01-31T15:48:21.715Z,6.68
2023-01-31T15:50:53.176Z,6.84
2023-01-31T15:53:24.421Z,6.77
2023-01-31T15:55:55.069Z,6.74
2023-01-31T15:58:25.702Z,6.77
2023-01-31T16:00:55.848Z,6.85
2023-01-31T16:03:25.405Z,6.84
2023-01-31T16:05:56.742Z,6.81
2023-01-31T16:08:30.020Z,6.80
2023-01-31T16:11:00.027Z,6.83
2023-01-31T16:13:28.495Z,6.89
2023-01-31T16:15:56.618Z,6.90
2023-01-31T16:18:25.132Z,6.84
2023-01-31T16:20:56.149Z,6.90
2023-01-31T16:23:30.945Z,6.87
2023-01-31T16:26:05.837Z,6.85
2023-01-31T16:28:39.584Z,6.89
2023-01-31T16:31:13.005Z,7.01
2023-01-31T16:33:49.018Z,6.98
2023-01-31T16:36:23.070Z,7.04
2023-01-31T16:38:59.742Z,6.97
2023-01-31T16:41:43.627Z,7.03
2023-01-31T16:44:16.559Z,7.01
2023-01-31T16:46:46.343Z,7.02
2023-01-31T16:49:23.602Z,7.04
2023-01-31T16:51:55.448Z,7.03
2023-01-31T16:54:24.949Z,6.98
2023-01-31T16:57:22.462Z,7.01
2023-01-31T16:59:52.883Z,7.02
2023-01-31T17:02:24.764Z,7.02
2023-01-31T17:04:55.425Z,7.04
2023-01-31T17:07:26.317Z,7.06
2023-01-31T17:09:56.706Z,7.11
2023-01-31T17:12:26.929Z,7.06
2023-01-31T17:14:59.088Z,7.12
2023-01-31T17:17:30.752Z,7.21
2023-01-31T17:19:58.617Z,7.14
2023-01-31T17:22:27.836Z,7.11
2023-01-31T17:24:55.535Z,7.11
2023-01-31T17:27:23.904Z,7.10
2023-01-31T17:29:51.612Z,7.07
2023-01-31T17:32:21.940Z,7.12
2023-01-31T17:34:49.588Z,7.04
2023-01-31T17:37:26.759Z,7.09
2023-01-31T17:40:01.226Z,7.02
2023-01-31T17:42:29.170Z,7.02
2023-01-31T17:44:56.824Z,7.04
2023-01-31T17:47:26.752Z,7.06
2023-01-31T17:49:54.739Z,7.00
2023-01-31T17:52:22.373Z,6.97
2023-01-31T17:54:50.192Z,6.98
2023-01-31T17:57:19.328Z,7.00
2023-01-31T17:59:47.166Z,6.98
2023-01-31T18:02:14.823Z,6.99
2023-01-31T18:04:42.517Z,6.94
2023-01-31T18:07:11.126Z,7.03
2023-01-31T18:09:38.775Z,6.99
2023-01-31T18:12:06.703Z,6.99
2023-01-31T18:14:35.881Z,6.98
2023-01-31T18:17:03.816Z,7.02
2023-01-31T18:19:31.439Z,7.03
2023-01-31T18:21:59.615Z,6.98
2023-01-31T18:24:27.331Z,6.94
2023-01-31T18:26:56.809Z,6.90
2023-01-31T18:29:26.230Z,6.89
2023-01-31T18:31:57.969Z,6.88
2023-01-31T18:34:26.153Z,6.81
2023-01-31T18:36:53.724Z,6.94
2023-01-31T18:39:21.645Z,6.83
2023-01-31T18:41:49.235Z,6.81
2023-01-31T18:44:17.077Z,6.76
2023-01-31T18:46:44.808Z,6.81
2023-01-31T18:49:13.783Z,6.70
2023-01-31T18:51:42.700Z,6.63
2023-01-31T18:54:10.726Z,6.60
2023-01-31T18:56:38.460Z,6.55
2023-01-31T18:59:06.154Z,6.53
2023-01-31T19:01:33.833Z,6.55
2023-01-31T19:04:02.665Z,6.55
2023-01-31T19:06:36.184Z,6.46
2023-01-31T19:09:06.422Z,6.38
2023-01-31T19:11:34.654Z,6.35
2023-01-31T19:14:06.474Z,6.33
2023-01-31T19:16:38.654Z,6.24
2023-01-31T19:19:07.734Z,6.22
2023-01-31T19:21:37.559Z,6.19
2023-01-31T19:24:07.387Z,6.18
2023-01-31T19:26:35.898Z,6.11
2023-01-31T19:29:08.060Z,6.13
2023-01-31T19:31:37.032Z,6.06
2023-01-31T19:34:06.769Z,6.02
2023-01-31T19:36:38.419Z,5.96
2023-01-31T19:39:08.007Z,5.92
2023-01-31T19:41:35.920Z,5.92
2023-01-31T19:44:03.734Z,5.88
2023-01-31T19:46:34.695Z,5.88
2023-01-31T19:49:03.086Z,5.84
2023-01-31T19:51:30.992Z,5.88
2023-01-31T19:54:02.475Z,5.80
2023-01-31T19:56:30.768Z,5.82
2023-01-31T19:58:58.621Z,5.74
2023-01-31T20:01:26.385Z,5.69
2023-01-31T20:03:55.303Z,5.67
2023-01-31T20:06:26.056Z,5.66
2023-01-31T20:08:55.767Z,5.65
2023-01-31T20:11:26.006Z,5.65
2023-01-31T20:13:55.657Z,5.58
2023-01-31T20:16:24.845Z,5.58
2023-01-31T20:18:54.699Z,5.51
2023-01-31T20:21:23.943Z,5.50
2023-01-31T20:23:51.564Z,5.51
2023-01-31T20:26:22.263Z,5.47
2023-01-31T20:28:51.579Z,5.45
2023-01-31T20:31:19.488Z,5.43
2023-01-31T20:33:47.209Z,5.43
2023-01-31T20:36:15.704Z,5.44
2023-01-31T20:38:43.302Z,5.39
2023-01-31T20:41:11.315Z,5.44
2023-01-31T20:43:39.744Z,5.38
2023-01-31T20:46:11.376Z,5.37
2023-01-31T20:48:39.634Z,5.33
2023-01-31T20:51:08.400Z,5.27
2023-01-31T20:53:36.420Z,5.32
2023-01-31T20:56:06.806Z,5.31
2023-01-31T20:58:36.788Z,5.29
2023-01-31T21:01:06.834Z,5.26
2023-01-31T21:03:36.690Z,5.23
2023-01-31T21:06:06.271Z,5.24
2023-01-31T21:08:35.350Z,5.19
2023-01-31T21:11:06.782Z,5.20
2023-01-31T21:13:34.725Z,5.18
2023-01-31T21:16:05.045Z,5.23
2023-01-31T21:18:38.813Z,5.16
2023-01-31T21:21:08.896Z,5.13
2023-01-31T21:23:38.185Z,5.09
2023-01-31T21:26:07.430Z,5.12
2023-01-31T21:28:35.778Z,5.09
2023-01-31T21:31:07.514Z,5.13
2023-01-31T21:33:35.400Z,5.08
2023-01-31T21:36:10.564Z,5.03
2023-01-31T21:38:38.511Z,5.04
2023-01-31T21:41:24.267Z,5.00
2023-01-31T21:43:51.863Z,4.99
2023-01-31T21:46:19.990Z,5.00
2023-01-31T21:48:47.852Z,5.01
2023-01-31T21:51:22.060Z,4.99
2023-01-31T21:53:49.783Z,4.95
2023-01-31T21:56:19.388Z,4.96
2023-01-31T21:58:48.661Z,4.94
